Time;durP1;ratioP1;P1;durP2;ratioP2;P2;SDS_P1;SDS_P2;PMS_P1;PMS_P2;Temp;Humidity;BMP_temperature;BMP_pressure;BME280_temperature;BME280_humidity;BME280_pressure;Samples;Min_cycle;Max_cycle;Signal;HPM_P1;HPM_P2
2023/10/19 00:01:15;;;;;;;18.30;16.53;;;11.00;99.90;;;;;;4926906;29;20332;-78
2023/10/19 00:03:44;;;;;;;19.70;17.80;;;11.00;99.90;;;;;;4943112;29;20206;-78
2023/10/19 00:06:10;;;;;;;18.17;16.57;;;11.00;99.90;;;;;;4940891;29;20215;-77
2023/10/19 00:08:41;;;;;;;16.03;13.97;;;11.10;99.90;;;;;;4943641;29;20223;-78
2023/10/19 00:11:09;;;;;;;15.60;14.07;;;11.10;99.90;;;;;;4939253;29;20261;-77
2023/10/19 00:13:37;;;;;;;17.77;14.77;;;11.10;99.90;;;;;;4939234;29;20585;-77
2023/10/19 00:16:11;;;;;;;16.03;14.43;;;11.10;99.90;;;;;;4956860;29;20688;-77
2023/10/19 00:18:41;;;;;;;25.20;23.30;;;11.10;99.90;;;;;;4956725;29;20216;-78
2023/10/19 00:21:19;;;;;;;18.70;17.00;;;11.10;99.90;;;;;;4955785;28;20281;-78
2023/10/19 00:23:47;;;;;;;17.13;15.53;;;11.10;99.90;;;;;;4946937;29;20286;-77
2023/10/19 00:26:19;;;;;;;15.43;13.83;;;11.20;99.90;;;;;;4943296;29;20418;-78
2023/10/19 00:28:55;;;;;;;18.70;16.80;;;11.20;99.90;;;;;;4926934;29;20202;-77
2023/10/19 00:31:22;;;;;;;20.13;18.23;;;11.20;99.90;;;;;;4930792;29;20309;-78
2023/10/19 00:33:51;;;;;;;22.20;20.30;;;11.20;99.90;;;;;;4927560;29;20278;-78
2023/10/19 00:36:20;;;;;;;17.43;16.03;;;11.20;99.90;;;;;;4928471;29;20291;-78
2023/10/19 00:38:53;;;;;;;18.60;17.00;;;11.20;99.90;;;;;;4920747;29;20272;-78
2023/10/19 00:41:24;;;;;;;15.77;14.37;;;11.20;99.90;;;;;;4925869;29;20327;-78
2023/10/19 00:43:57;;;;;;;16.07;14.47;;;11.20;99.90;;;;;;4941914;29;20201;-78
2023/10/19 00:46:32;;;;;;;16.00;14.40;;;11.20;99.90;;;;;;4926455;29;20219;-78
2023/10/19 00:49:01;;;;;;;15.53;14.03;;;11.20;99.90;;;;;;4926552;29;20559;-78
2023/10/19 00:51:42;;;;;;;17.80;15.77;;;11.20;99.90;;;;;;4931561;29;20221;-78
2023/10/19 00:54:13;;;;;;;16.07;14.47;;;11.20;99.90;;;;;;4941976;29;20217;-78
2023/10/19 00:56:46;;;;;;;16.80;15.17;;;11.20;99.90;;;;;;4939435;29;20201;-78
2023/10/19 00:59:14;;;;;;;16.43;14.83;;;11.20;99.90;;;;;;4921284;29;20200;-78
2023/10/19 01:01:45;;;;;;;19.73;17.57;;;11.20;99.90;;;;;;4932640;29;20231;-78
2023/10/19 01:04:14;;;;;;;17.83;16.03;;;11.20;99.90;;;;;;4926662;29;20307;-78
2023/10/19 01:06:43;;;;;;;19.67;16.37;;;11.20;99.90;;;;;;4928211;29;20265;-78
2023/10/19 01:09:14;;;;;;;16.87;15.17;;;11.20;99.90;;;;;;4925989;29;20211;-78
2023/10/19 01:11:45;;;;;;;18.57;16.87;;;11.20;99.90;;;;;;4922431;29;20228;-78
2023/10/19 01:14:23;;;;;;;18.27;16.57;;;11.20;99.90;;;;;;4923699;29;20195;-78
2023/10/19 01:16:51;;;;;;;16.53;14.43;;;11.20;99.90;;;;;;4922813;29;20679;-78
2023/10/19 01:19:20;;;;;;;14.80;13.30;;;11.20;99.90;;;;;;4920121;29;20208;-77
2023/10/19 01:21:51;;;;;;;16.30;14.80;;;11.30;99.90;;;;;;4927149;29;20236;-78
2023/10/19 01:24:31;;;;;;;16.30;14.90;;;11.30;99.90;;;;;;4930931;29;20300;-78
2023/10/19 01:26:59;;;;;;;17.00;15.30;;;11.30;99.90;;;;;;4931344;29;20298;-78
2023/10/19 01:29:27;;;;;;;16.00;14.30;;;11.30;99.90;;;;;;4926903;29;20235;-78
2023/10/19 01:32:05;;;;;;;12.50;11.30;;;11.40;99.90;;;;;;4931486;29;20228;-78
2023/10/19 01:34:34;;;;;;;14.40;11.60;;;11.40;99.90;;;;;;4928348;29;20219;-78
2023/10/19 01:37:03;;;;;;;17.63;16.03;;;11.40;99.90;;;;;;4937344;29;20259;-78
2023/10/19 01:39:31;;;;;;;17.87;16.20;;;11.40;99.90;;;;;;4925486;29;20202;-78
2023/10/19 01:41:57;;;;;;;17.13;15.73;;;11.50;99.90;;;;;;4927577;29;20678;-78
2023/10/19 01:44:26;;;;;;;15.27;13.73;;;11.50;99.90;;;;;;4931209;29;20220;-78
2023/10/19 01:46:52;;;;;;;14.97;13.40;;;11.50;99.90;;;;;;4927349;29;20206;-78
2023/10/19 01:49:26;;;;;;;15.03;13.13;;;11.50;99.90;;;;;;4929858;29;20201;-78
2023/10/19 01:51:53;;;;;;;14.07;12.67;;;11.50;99.90;;;;;;4934790;29;20240;-78
2023/10/19 01:54:23;;;;;;;13.47;12.07;;;11.50;99.90;;;;;;4929321;29;20680;-78
2023/10/19 01:56:54;;;;;;;12.93;11.67;;;11.50;99.90;;;;;;4928685;29;20204;-78
2023/10/19 01:59:21;;;;;;;13.50;12.10;;;11.50;99.90;;;;;;4925791;29;20205;-78
2023/10/19 02:01:49;;;;;;;12.33;11.13;;;11.50;99.90;;;;;;4931243;29;20250;-78
2023/10/19 02:04:16;;;;;;;14.77;13.27;;;11.60;99.90;;;;;;4932791;29;20197;-78
2023/10/19 02:06:42;;;;;;;17.40;15.80;;;11.60;99.90;;;;;;4931897;29;20255;-78
2023/10/19 02:09:16;;;;;;;16.33;14.67;;;11.50;99.90;;;;;;4930103;29;20201;-78
2023/10/19 02:11:46;;;;;;;14.93;12.57;;;11.50;99.90;;;;;;4928058;29;20751;-78
2023/10/19 02:14:15;;;;;;;12.57;11.37;;;11.50;99.90;;;;;;4929122;29;20197;-78
2023/10/19 02:16:43;;;;;;;13.37;12.13;;;11.50;99.90;;;;;;4927684;29;20275;-78
2023/10/19 02:19:09;;;;;;;14.47;13.07;;;11.40;99.90;;;;;;4928378;29;20200;-78
2023/10/19 02:21:39;;;;;;;14.77;12.77;;;11.50;99.90;;;;;;4925780;29;20235;-78
2023/10/19 02:24:07;;;;;;;14.93;13.40;;;11.50;99.90;;;;;;4927623;29;20203;-78
2023/10/19 02:26:35;;;;;;;15.03;13.53;;;11.50;99.90;;;;;;4935969;29;20205;-78
2023/10/19 02:29:03;;;;;;;14.17;12.77;;;11.50;99.90;;;;;;4945537;29;20281;-78
2023/10/19 02:31:31;;;;;;;13.57;12.27;;;11.50;99.90;;;;;;4924694;29;20245;-78
2023/10/19 02:33:58;;;;;;;15.77;14.40;;;11.50;99.90;;;;;;4941972;29;20196;-78
2023/10/19 02:36:28;;;;;;;14.57;13.17;;;11.60;99.90;;;;;;4923116;29;20205;-78
2023/10/19 02:38:54;;;;;;;14.93;13.63;;;11.60;99.90;;;;;;4946610;29;20203;-78
2023/10/19 02:41:21;;;;;;;16.73;15.13;;;11.60;99.90;;;;;;4928209;29;20591;-78
2023/10/19 02:43:51;;;;;;;17.80;16.17;;;11.50;99.90;;;;;;4928157;29;20655;-78
2023/10/19 02:46:18;;;;;;;14.53;12.87;;;11.50;99.90;;;;;;4929294;29;20230;-78
2023/10/19 02:48:45;;;;;;;15.50;14.00;;;11.40;99.90;;;;;;4925825;29;20588;-78
2023/10/19 02:51:13;;;;;;;13.37;12.10;;;11.40;99.90;;;;;;4927139;29;20686;-78
2023/10/19 02:53:39;;;;;;;14.70;13.20;;;11.30;99.90;;;;;;4921774;29;20580;-77
2023/10/19 02:56:12;;;;;;;13.20;11.90;;;11.30;99.90;;;;;;4925711;29;20635;-76
2023/10/19 02:58:42;;;;;;;12.67;11.37;;;11.20;99.90;;;;;;4935355;29;20210;-80
2023/10/19 03:14:33;;;;;;;13.80;12.40;;;11.00;99.90;;;;;;5241339;23;20344;-79
2023/10/19 03:17:00;;;;;;;14.47;13.20;;;10.90;99.90;;;;;;4965599;28;20247;-79
2023/10/19 03:19:27;;;;;;;14.17;12.77;;;10.90;99.90;;;;;;4943284;28;20202;-80
2023/10/19 03:21:55;;;;;;;18.77;17.17;;;10.90;99.90;;;;;;4940025;29;20274;-80
2023/10/19 03:24:35;;;;;;;16.23;14.63;;;10.80;99.90;;;;;;4945930;28;20286;-80
2023/10/19 03:27:01;;;;;;;14.23;12.83;;;10.80;99.90;;;;;;4945858;28;20630;-80
2023/10/19 03:29:31;;;;;;;14.63;13.23;;;10.70;99.90;;;;;;4940412;28;20206;-79
2023/10/19 03:32:48;;;;;;;15.93;14.37;;;10.70;99.90;;;;;;5211194;23;20252;-80
2023/10/19 03:36:50;;;;;;;16.97;15.27;;;10.60;99.90;;;;;;4951590;29;20214;-79
2023/10/19 03:39:44;;;;;;;24.17;22.37;;;10.60;99.90;;;;;;4914655;29;20270;-78
2023/10/19 03:42:13;;;;;;;25.43;23.43;;;10.50;99.90;;;;;;4915752;29;20295;-77
2023/10/19 03:44:45;;;;;;;25.40;23.40;;;10.40;99.90;;;;;;4916506;29;20259;-77
2023/10/19 03:47:14;;;;;;;28.37;26.20;;;10.40;99.90;;;;;;4923305;29;20223;-77
2023/10/19 03:49:41;;;;;;;23.80;21.77;;;10.40;99.90;;;;;;4926384;29;20203;-76
2023/10/19 03:52:21;;;;;;;25.97;23.87;;;10.30;99.90;;;;;;4923456;29;20200;-77
2023/10/19 03:54:50;;;;;;;26.13;24.07;;;10.30;99.90;;;;;;4924836;29;20206;-76
2023/10/19 03:57:24;;;;;;;28.20;26.00;;;10.30;99.90;;;;;;4918839;29;20282;-76
2023/10/19 03:59:56;;;;;;;24.23;22.23;;;10.20;99.90;;;;;;4921530;29;20213;-76
2023/10/19 04:02:24;;;;;;;25.30;23.40;;;10.20;99.90;;;;;;4925175;29;20287;-77
2023/10/19 04:04:52;;;;;;;27.00;24.77;;;10.20;99.90;;;;;;4927491;29;20206;-76
2023/10/19 04:07:21;;;;;;;27.20;25.20;;;10.10;99.90;;;;;;4929965;29;20196;-77
2023/10/19 04:09:59;;;;;;;26.57;24.37;;;10.20;99.90;;;;;;4921222;29;20207;-76
2023/10/19 04:12:28;;;;;;;25.57;23.47;;;10.10;99.90;;;;;;4925579;29;20674;-77
2023/10/19 04:14:56;;;;;;;26.50;24.50;;;10.10;99.90;;;;;;4924195;29;20195;-76
2023/10/19 04:17:23;;;;;;;24.83;22.93;;;10.10;99.90;;;;;;4934853;29;20203;-76
2023/10/19 04:19:51;;;;;;;24.37;22.63;;;10.10;99.90;;;;;;4932168;29;20710;-76
2023/10/19 04:22:22;;;;;;;23.80;22.07;;;10.10;99.90;;;;;;4923245;29;20215;-76
2023/10/19 04:24:53;;;;;;;20.10;18.23;;;10.10;99.90;;;;;;4917848;29;20247;-77
2023/10/19 04:27:22;;;;;;;25.87;23.97;;;10.10;99.90;;;;;;4918589;29;20203;-76
2023/10/19 04:29:50;;;;;;;16.43;14.73;;;10.10;99.90;;;;;;4922254;29;20208;-77
2023/10/19 04:32:25;;;;;;;21.57;19.67;;;10.10;99.90;;;;;;4922920;29;20526;-75
2023/10/19 04:34:52;;;;;;;16.93;15.33;;;10.00;99.90;;;;;;4918725;29;20259;-76
2023/10/19 04:37:19;;;;;;;15.70;14.30;;;10.00;99.90;;;;;;4920248;29;20259;-77
2023/10/19 04:39:46;;;;;;;15.97;14.37;;;10.00;99.90;;;;;;4925615;29;20227;-77
2023/10/19 04:42:14;;;;;;;25.20;23.20;;;10.00;99.90;;;;;;4922475;29;20640;-77
2023/10/19 04:44:41;;;;;;;25.20;23.40;;;10.00;99.90;;;;;;4918585;29;20207;-76
2023/10/19 04:47:08;;;;;;;24.50;22.70;;;9.90;99.90;;;;;;4923668;29;20200;-76
2023/10/19 04:49:35;;;;;;;15.60;14.00;;;9.90;99.90;;;;;;4922705;29;20214;-76
2023/10/19 04:52:03;;;;;;;18.57;17.00;;;9.90;99.90;;;;;;4917678;29;20287;-77
2023/10/19 04:54:30;;;;;;;17.03;15.57;;;9.90;99.90;;;;;;4919961;29;20195;-77
2023/10/19 04:56:57;;;;;;;15.43;13.93;;;9.90;99.90;;;;;;4916121;29;20584;-77
2023/10/19 04:59:25;;;;;;;18.77;17.13;;;9.90;99.90;;;;;;4917023;29;20210;-77
2023/10/19 05:01:52;;;;;;;16.47;15.00;;;9.90;99.90;;;;;;4926955;29;20229;-77
2023/10/19 05:04:18;;;;;;;17.97;16.37;;;9.90;99.90;;;;;;4921568;29;20207;-77
2023/10/19 05:06:45;;;;;;;22.23;20.33;;;10.00;99.90;;;;;;4928507;29;20381;-77
2023/10/19 05:09:13;;;;;;;20.67;18.87;;;10.10;99.90;;;;;;4920655;29;20210;-77
2023/10/19 05:11:40;;;;;;;17.17;15.47;;;10.10;99.90;;;;;;4924334;29;20230;-77
2023/10/19 05:14:07;;;;;;;17.83;16.00;;;10.10;99.90;;;;;;4926711;29;20702;-77
2023/10/19 05:16:35;;;;;;;15.20;13.73;;;10.20;99.90;;;;;;4920757;29;20207;-77
2023/10/19 05:19:04;;;;;;;13.83;12.60;;;10.20;99.90;;;;;;4917745;29;20200;-77
2023/10/19 05:21:31;;;;;;;17.30;15.80;;;10.30;99.90;;;;;;4919031;29;20220;-77
2023/10/19 05:24:00;;;;;;;21.50;19.67;;;10.30;99.90;;;;;;4922759;29;20276;-77
2023/10/19 05:26:28;;;;;;;19.13;17.40;;;10.30;99.90;;;;;;4922503;29;20660;-76
2023/10/19 05:28:55;;;;;;;17.10;15.53;;;10.30;99.90;;;;;;4922356;29;20203;-76
2023/10/19 05:31:22;;;;;;;16.13;14.53;;;10.30;99.90;;;;;;4924538;29;20254;-77
2023/10/19 05:33:50;;;;;;;14.13;12.73;;;10.40;99.90;;;;;;4926082;29;20195;-77
2023/10/19 05:36:17;;;;;;;16.60;15.20;;;10.40;99.90;;;;;;4930690;29;20199;-77
2023/10/19 05:38:45;;;;;;;18.43;16.83;;;10.50;99.90;;;;;;4927755;29;20203;-76
2023/10/19 05:41:12;;;;;;;14.90;13.50;;;10.50;99.90;;;;;;4923186;29;20658;-77
2023/10/19 05:43:39;;;;;;;13.40;12.20;;;10.50;99.90;;;;;;4917016;29;20251;-76
2023/10/19 05:46:05;;;;;;;12.83;11.63;;;10.50;99.90;;;;;;4927219;29;20195;-77
2023/10/19 05:48:32;;;;;;;12.90;11.70;;;10.60;99.90;;;;;;4926045;29;20211;-77
2023/10/19 05:51:00;;;;;;;14.30;12.93;;;10.60;99.90;;;;;;4924866;29;20710;-77
2023/10/19 05:53:29;;;;;;;12.23;11.13;;;10.60;99.90;;;;;;4931957;29;20216;-77
2023/10/19 05:55:56;;;;;;;12.67;11.47;;;10.70;99.90;;;;;;4923577;29;20230;-76
2023/10/19 05:58:23;;;;;;;11.40;10.17;;;10.70;99.90;;;;;;4922171;29;20598;-77
2023/10/19 06:00:51;;;;;;;11.07;10.07;;;10.70;99.90;;;;;;4917948;29;20250;-77
2023/10/19 06:03:19;;;;;;;11.73;10.63;;;10.70;99.90;;;;;;4925103;29;20295;-77
2023/10/19 06:05:45;;;;;;;11.80;10.60;;;10.80;99.90;;;;;;4917837;29;20201;-77
2023/10/19 06:08:14;;;;;;;11.37;10.27;;;10.80;99.90;;;;;;4935800;29;20255;-79
2023/10/19 06:10:42;;;;;;;13.00;11.80;;;10.80;99.90;;;;;;4933358;29;20228;-78
2023/10/19 06:13:09;;;;;;;13.23;11.93;;;10.80;99.90;;;;;;4939735;29;20215;-78
2023/10/19 06:15:36;;;;;;;13.27;11.87;;;10.80;99.90;;;;;;4922428;29;20204;-77
2023/10/19 06:18:04;;;;;;;15.47;13.30;;;10.80;99.90;;;;;;4934774;29;20263;-78
2023/10/19 06:20:36;;;;;;;13.43;12.13;;;10.80;99.90;;;;;;4928936;29;20275;-80
2023/10/19 06:23:05;;;;;;;13.93;12.53;;;10.80;99.90;;;;;;4926580;29;20268;-78
2023/10/19 06:25:35;;;;;;;13.87;12.37;;;10.80;99.90;;;;;;4927957;29;20667;-77
2023/10/19 06:28:02;;;;;;;12.57;11.37;;;10.90;99.90;;;;;;4926084;29;20283;-77
2023/10/19 06:30:29;;;;;;;14.27;12.53;;;10.90;99.90;;;;;;4922828;29;20243;-78
2023/10/19 06:32:59;;;;;;;12.83;11.60;;;10.90;99.90;;;;;;4928166;29;20208;-77
2023/10/19 06:35:26;;;;;;;12.10;10.90;;;10.90;99.90;;;;;;4928294;29;20212;-78
2023/10/19 06:37:54;;;;;;;13.43;12.33;;;10.90;99.90;;;;;;4924350;29;20685;-78
2023/10/19 06:40:22;;;;;;;11.10;10.10;;;10.90;99.90;;;;;;4927094;29;20737;-78
2023/10/19 06:42:50;;;;;;;11.33;10.27;;;11.00;99.90;;;;;;4927662;29;20228;-78
2023/10/19 06:45:18;;;;;;;10.73;9.73;;;11.00;99.90;;;;;;4929116;29;20223;-78
2023/10/19 06:47:46;;;;;;;12.63;11.53;;;11.00;99.90;;;;;;4929061;29;20209;-78
2023/10/19 06:50:15;;;;;;;12.30;11.23;;;11.00;99.90;;;;;;4925178;29;20217;-79
2023/10/19 06:52:43;;;;;;;13.50;12.40;;;11.10;99.90;;;;;;4929546;29;20609;-76
2023/10/19 06:55:14;;;;;;;12.57;11.37;;;11.10;99.90;;;;;;4922783;29;20200;-76
2023/10/19 06:57:43;;;;;;;12.47;11.17;;;11.10;99.90;;;;;;4918711;29;20214;-77
2023/10/19 07:00:15;;;;;;;10.70;9.70;;;11.20;99.90;;;;;;4923724;29;20217;-77
2023/10/19 07:02:43;;;;;;;13.97;12.87;;;11.20;99.90;;;;;;4928527;29;20240;-76
2023/10/19 07:05:11;;;;;;;14.77;13.57;;;11.20;99.90;;;;;;4928756;29;20637;-77
2023/10/19 07:07:40;;;;;;;12.70;11.40;;;11.30;99.90;;;;;;4928795;29;20268;-77
2023/10/19 07:10:08;;;;;;;11.37;10.27;;;11.30;99.90;;;;;;4925069;29;20320;-77
2023/10/19 07:12:35;;;;;;;11.73;10.63;;;11.40;99.90;;;;;;4923287;29;20235;-77
2023/10/19 07:15:03;;;;;;;11.53;10.43;;;11.40;99.90;;;;;;4924263;29;20201;-77
2023/10/19 07:17:31;;;;;;;12.50;11.30;;;11.40;99.90;;;;;;4923575;29;20195;-77
2023/10/19 07:19:59;;;;;;;12.20;11.10;;;11.40;99.90;;;;;;4931403;29;20723;-76
2023/10/19 07:22:26;;;;;;;11.17;10.10;;;11.40;99.90;;;;;;4923482;29;20596;-77
2023/10/19 07:24:54;;;;;;;11.40;10.40;;;11.50;99.90;;;;;;4928151;29;20212;-76
2023/10/19 07:27:21;;;;;;;12.77;11.77;;;11.60;99.90;;;;;;4929711;29;20346;-77
2023/10/19 07:29:48;;;;;;;10.40;9.40;;;11.60;99.90;;;;;;4925219;29;20207;-77
2023/10/19 07:32:16;;;;;;;13.17;12.17;;;11.70;99.90;;;;;;4920335;29;20681;-77
2023/10/19 07:34:45;;;;;;;13.67;12.57;;;11.80;99.90;;;;;;4923612;29;20210;-77
2023/10/19 07:37:15;;;;;;;11.93;9.73;;;11.80;99.90;;;;;;4925728;29;20212;-77
2023/10/19 07:39:45;;;;;;;16.43;15.13;;;11.80;99.90;;;;;;4926198;29;20264;-77
2023/10/19 07:42:12;;;;;;;15.63;14.43;;;11.80;99.90;;;;;;4923258;29;20228;-77
2023/10/19 07:44:39;;;;;;;13.23;12.03;;;11.80;99.90;;;;;;4921381;29;20201;-77
2023/10/19 07:47:09;;;;;;;15.80;14.70;;;11.90;99.90;;;;;;4918464;29;20209;-77
2023/10/19 07:49:38;;;;;;;14.83;13.63;;;12.00;99.90;;;;;;4919516;29;20679;-77
2023/10/19 07:52:07;;;;;;;12.60;11.50;;;12.20;99.90;;;;;;4923066;29;20204;-77
2023/10/19 07:54:35;;;;;;;15.87;14.77;;;12.30;99.90;;;;;;4924042;29;20206;-77
2023/10/19 07:57:05;;;;;;;10.50;9.60;;;12.40;99.90;;;;;;4934396;29;20202;-78
2023/10/19 07:59:32;;;;;;;14.30;13.20;;;12.60;99.90;;;;;;4922542;29;20682;-77
2023/10/19 08:02:01;;;;;;;12.47;11.37;;;12.70;99.90;;;;;;4922386;29;20299;-78
2023/10/19 08:04:28;;;;;;;14.57;13.43;;;12.80;99.90;;;;;;4922936;29;20207;-77
2023/10/19 08:06:55;;;;;;;10.67;9.70;;;12.90;99.90;;;;;;4919416;29;20203;-77
2023/10/19 08:09:23;;;;;;;13.93;12.73;;;13.00;99.90;;;;;;4923553;29;20302;-78
2023/10/19 08:11:55;;;;;;;10.07;9.17;;;13.10;99.90;;;;;;4935275;29;20257;-78
2023/10/19 08:14:22;;;;;;;11.70;10.80;;;13.10;99.90;;;;;;4937088;29;20203;-77
2023/10/19 08:16:49;;;;;;;9.33;8.43;;;13.30;99.90;;;;;;4934931;29;20264;-78
2023/10/19 08:19:15;;;;;;;9.07;8.27;;;13.40;99.90;;;;;;4923953;29;20203;-77
2023/10/19 08:21:42;;;;;;;8.90;8.10;;;13.50;99.90;;;;;;4928348;29;20231;-77
2023/10/19 08:24:13;;;;;;;9.23;8.33;;;13.70;99.90;;;;;;4922111;29;20618;-78
2023/10/19 08:26:41;;;;;;;9.10;8.10;;;13.90;99.90;;;;;;4922800;29;20675;-78
2023/10/19 08:29:12;;;;;;;10.30;9.30;;;14.20;99.90;;;;;;4924981;29;20287;-78
2023/10/19 08:31:40;;;;;;;12.90;11.90;;;14.50;99.90;;;;;;4924269;29;20275;-78
2023/10/19 08:34:09;;;;;;;10.07;9.20;;;14.70;99.90;;;;;;4919313;29;20238;-78
2023/10/19 08:36:37;;;;;;;14.23;13.03;;;14.90;99.90;;;;;;4920890;29;20203;-78
2023/10/19 08:39:05;;;;;;;9.43;8.53;;;15.10;99.90;;;;;;4919454;29;20206;-77
2023/10/19 08:41:34;;;;;;;9.80;9.00;;;15.20;99.90;;;;;;4923605;29;20264;-78
2023/10/19 08:44:03;;;;;;;9.40;8.33;;;15.30;99.90;;;;;;4922349;29;20233;-78
2023/10/19 08:46:29;;;;;;;12.77;11.77;;;15.20;99.90;;;;;;4922909;29;20195;-78
2023/10/19 08:48:59;;;;;;;7.63;6.93;;;15.20;99.90;;;;;;4919841;29;20665;-77
2023/10/19 08:51:26;;;;;;;9.03;8.13;;;15.30;99.90;;;;;;4923558;29;20646;-78
2023/10/19 08:53:54;;;;;;;7.70;6.57;;;15.40;99.90;;;;;;4924797;29;20199;-78
2023/10/19 08:56:23;;;;;;;14.00;13.10;;;15.40;99.90;;;;;;4919295;29;20211;-77
2023/10/19 08:58:51;;;;;;;13.97;12.77;;;15.40;99.90;;;;;;4922919;29;20209;-77
2023/10/19 09:01:23;;;;;;;14.20;13.10;;;15.40;99.90;;;;;;4924217;29;20708;-78
2023/10/19 09:03:51;;;;;;;15.93;14.83;;;15.40;99.90;;;;;;4925642;29;20226;-78
2023/10/19 09:06:18;;;;;;;14.20;13.30;;;15.40;99.90;;;;;;4927381;29;20207;-78
2023/10/19 09:08:48;;;;;;;7.30;6.67;;;15.40;99.90;;;;;;4922036;29;20420;-78
2023/10/19 09:11:18;;;;;;;9.23;8.53;;;15.50;99.90;;;;;;4929400;29;20247;-77
2023/10/19 09:13:47;;;;;;;8.23;7.53;;;15.50;99.90;;;;;;4922832;29;20192;-77
2023/10/19 09:16:15;;;;;;;8.37;7.00;;;15.50;99.90;;;;;;4923750;29;20290;-78
2023/10/19 09:18:44;;;;;;;15.33;14.33;;;15.50;99.90;;;;;;4927291;29;20207;-78
2023/10/19 09:21:12;;;;;;;15.77;14.70;;;15.50;99.90;;;;;;4928413;29;20299;-77
2023/10/19 09:23:39;;;;;;;14.90;13.80;;;15.50;99.90;;;;;;4927567;29;20305;-78
2023/10/19 09:26:07;;;;;;;15.27;14.17;;;15.50;99.90;;;;;;4923057;29;20196;-77
2023/10/19 09:28:36;;;;;;;14.67;13.67;;;15.50;99.90;;;;;;4925188;29;20259;-78
2023/10/19 09:33:48;;;;;;;15.47;14.33;;;15.60;99.90;;;;;;5014720;23;20257;-79
2023/10/19 09:36:16;;;;;;;15.03;13.83;;;15.60;99.90;;;;;;4941219;29;20241;-80
2023/10/19 09:38:48;;;;;;;15.37;14.27;;;15.70;99.90;;;;;;4947842;29;20256;-78
2023/10/19 09:41:18;;;;;;;14.33;13.10;;;15.70;99.90;;;;;;4936128;29;20242;-80
2023/10/19 09:43:55;;;;;;;18.07;16.77;;;15.60;99.90;;;;;;4958691;29;20249;-80
2023/10/19 09:46:28;;;;;;;14.07;13.17;;;15.70;99.90;;;;;;4965952;23;20236;-80
2023/10/19 09:48:57;;;;;;;13.97;12.97;;;15.70;99.90;;;;;;4938908;29;20225;-81
2023/10/19 09:51:25;;;;;;;13.50;12.27;;;15.70;99.90;;;;;;4928168;29;20204;-81
2023/10/19 09:53:58;;;;;;;9.97;9.17;;;15.60;99.90;;;;;;4934625;29;20238;-80
2023/10/19 09:56:30;;;;;;;7.60;6.90;;;15.60;99.90;;;;;;4918899;29;20206;-79
2023/10/19 09:59:03;;;;;;;8.00;7.20;;;15.50;99.90;;;;;;4902615;29;20212;-80
2023/10/19 10:02:05;;;;;;;8.93;7.27;;;15.60;99.90;;;;;;4900173;29;20208;-81
2023/10/19 10:04:35;;;;;;;7.70;6.93;;;15.60;99.90;;;;;;4898645;29;20218;-80
2023/10/19 10:07:05;;;;;;;7.43;6.73;;;15.70;99.90;;;;;;4907161;29;20226;-79
2023/10/19 10:09:33;;;;;;;7.30;6.60;;;15.70;99.90;;;;;;4913436;29;20190;-80
2023/10/19 10:12:17;;;;;;;9.67;6.90;;;15.80;99.90;;;;;;4908020;29;20207;-80
2023/10/19 10:14:58;;;;;;;12.60;11.70;;;15.80;99.90;;;;;;4905164;29;20276;-80
2023/10/19 10:17:26;;;;;;;13.20;12.30;;;15.80;99.90;;;;;;4908676;29;20315;-80
2023/10/19 10:19:58;;;;;;;7.80;7.00;;;15.90;99.90;;;;;;4909153;29;20218;-81
2023/10/19 10:22:26;;;;;;;12.00;11.10;;;16.00;99.90;;;;;;4906325;29;20243;-81
2023/10/19 10:24:56;;;;;;;13.30;12.20;;;16.10;99.90;;;;;;4916371;29;20349;-80
2023/10/19 10:27:23;;;;;;;7.63;6.73;;;16.20;99.90;;;;;;4904938;29;20231;-80
2023/10/19 10:29:58;;;;;;;6.97;6.37;;;16.30;99.90;;;;;;4906684;29;20256;-80
2023/10/19 10:32:48;;;;;;;7.27;6.53;;;16.40;99.90;;;;;;4899284;29;20200;-80
2023/10/19 10:35:54;;;;;;;7.43;6.73;;;16.50;99.90;;;;;;4906328;29;20234;-80
2023/10/19 10:38:22;;;;;;;10.10;9.30;;;16.80;99.90;;;;;;4892894;29;20293;-80
2023/10/19 10:40:50;;;;;;;8.27;7.47;;;16.90;99.90;;;;;;4902857;29;20676;-80
2023/10/19 10:43:20;;;;;;;8.07;7.27;;;17.00;99.90;;;;;;4914379;29;20239;-80
2023/10/19 10:45:48;;;;;;;8.10;7.30;;;17.00;99.90;;;;;;4911543;29;20212;-80
2023/10/19 10:48:16;;;;;;;8.70;7.87;;;17.00;99.90;;;;;;4902184;29;20231;-81
2023/10/19 10:50:43;;;;;;;7.97;7.27;;;17.10;99.90;;;;;;4911321;29;20219;-80
2023/10/19 10:53:11;;;;;;;7.27;6.63;;;17.10;99.90;;;;;;4916500;29;20231;-80
2023/10/19 10:55:40;;;;;;;7.43;6.73;;;17.10;99.90;;;;;;4911500;29;20598;-80
2023/10/19 10:58:07;;;;;;;7.37;6.60;;;17.10;99.90;;;;;;4908412;29;20223;-80
2023/10/19 11:00:34;;;;;;;7.90;7.20;;;17.00;99.90;;;;;;4898619;29;20232;-80
2023/10/19 11:03:03;;;;;;;7.63;6.93;;;16.90;99.90;;;;;;4905124;29;20708;-80
2023/10/19 11:05:31;;;;;;;7.77;7.03;;;16.80;99.90;;;;;;4902285;29;20211;-80
2023/10/19 11:08:07;;;;;;;7.13;6.53;;;16.70;99.90;;;;;;4904831;29;20236;-82
2023/10/19 11:10:34;;;;;;;7.97;7.17;;;16.50;99.90;;;;;;4899642;29;20204;-80
2023/10/19 11:13:03;;;;;;;10.97;10.00;;;16.40;99.90;;;;;;4907065;29;20261;-80
2023/10/19 11:15:30;;;;;;;7.40;6.70;;;16.30;99.90;;;;;;4905085;29;20201;-80
2023/10/19 11:17:57;;;;;;;7.13;6.53;;;16.20;99.90;;;;;;4904231;29;20645;-81
2023/10/19 11:20:25;;;;;;;7.87;6.97;;;16.00;99.90;;;;;;4907814;29;20366;-79
2023/10/19 11:22:55;;;;;;;7.40;6.70;;;16.00;99.90;;;;;;4912112;29;20229;-79
2023/10/19 11:25:24;;;;;;;10.30;9.50;;;16.00;99.90;;;;;;4901451;29;20208;-79
2023/10/19 11:27:52;;;;;;;8.03;7.23;;;15.90;99.90;;;;;;4913708;29;20255;-79
2023/10/19 11:30:28;;;;;;;7.33;6.63;;;15.90;99.90;;;;;;4898366;29;20584;-80
2023/10/19 11:32:57;;;;;;;7.57;6.87;;;15.90;99.90;;;;;;4901737;29;20271;-79
2023/10/19 11:35:25;;;;;;;8.13;7.33;;;15.90;99.90;;;;;;4904147;29;20671;-80
2023/10/19 11:37:53;;;;;;;8.43;7.70;;;16.00;99.90;;;;;;4904485;29;20645;-80
2023/10/19 11:40:21;;;;;;;8.70;7.80;;;16.00;99.90;;;;;;4905653;29;20231;-80
2023/10/19 11:42:48;;;;;;;8.50;7.07;;;16.10;99.90;;;;;;4902441;29;20267;-80
2023/10/19 11:45:16;;;;;;;7.63;6.93;;;16.10;99.90;;;;;;4903854;29;20217;-79
2023/10/19 11:47:44;;;;;;;7.77;6.90;;;16.10;99.90;;;;;;4906406;29;20659;-79
2023/10/19 11:50:15;;;;;;;7.77;7.07;;;16.10;99.90;;;;;;4901266;29;20237;-79
2023/10/19 11:52:42;;;;;;;7.53;6.83;;;16.10;99.90;;;;;;4905276;29;20228;-80
2023/10/19 11:55:09;;;;;;;7.63;6.90;;;16.10;99.90;;;;;;4906427;29;20205;-80
2023/10/19 11:57:36;;;;;;;8.00;7.20;;;16.10;99.90;;;;;;4905062;29;20224;-79
2023/10/19 12:00:08;;;;;;;7.93;7.13;;;16.00;99.90;;;;;;4915217;29;20206;-79
2023/10/19 12:02:37;;;;;;;7.83;7.13;;;15.90;99.90;;;;;;4900589;29;20415;-79
2023/10/19 12:05:09;;;;;;;8.03;7.23;;;15.80;99.90;;;;;;4900769;29;20228;-80
2023/10/19 12:07:37;;;;;;;8.87;7.97;;;15.80;99.90;;;;;;4911509;29;20712;-80
2023/10/19 12:10:05;;;;;;;9.90;8.90;;;15.70;99.90;;;;;;4910049;29;20247;-79
2023/10/19 12:12:32;;;;;;;11.00;9.83;;;15.70;99.90;;;;;;4909598;29;20273;-81
2023/10/19 12:14:59;;;;;;;16.23;14.83;;;15.70;99.90;;;;;;4910390;29;20274;-79
2023/10/19 12:17:27;;;;;;;14.27;12.73;;;15.70;99.90;;;;;;4922428;29;20231;-79
2023/10/19 12:19:55;;;;;;;19.83;18.33;;;15.70;99.90;;;;;;4917131;29;20214;-80
2023/10/19 12:22:24;;;;;;;18.87;17.57;;;15.70;99.90;;;;;;4913576;29;20299;-79
2023/10/19 12:24:52;;;;;;;19.10;17.60;;;15.60;99.90;;;;;;4904468;29;20247;-79
2023/10/19 12:27:18;;;;;;;18.57;17.27;;;15.60;99.90;;;;;;4903067;29;20229;-80
2023/10/19 12:29:46;;;;;;;20.00;18.40;;;15.70;99.90;;;;;;4903615;29;20262;-79
2023/10/19 12:32:13;;;;;;;18.63;17.33;;;15.80;99.90;;;;;;4913427;29;20214;-79
2023/10/19 12:34:41;;;;;;;17.23;16.03;;;15.90;99.90;;;;;;4897810;29;20203;-79
2023/10/19 12:37:10;;;;;;;16.53;15.43;;;15.90;99.90;;;;;;4909878;29;20219;-79
2023/10/19 12:39:43;;;;;;;9.57;8.67;;;16.00;99.90;;;;;;4898583;29;20211;-79
2023/10/19 12:42:09;;;;;;;14.80;13.90;;;16.00;99.90;;;;;;4907190;29;20200;-80
2023/10/19 12:44:40;;;;;;;14.30;13.40;;;16.00;99.90;;;;;;4903348;29;20615;-79
2023/10/19 12:47:10;;;;;;;13.43;12.43;;;16.10;99.90;;;;;;4902975;29;20330;-80
2023/10/19 12:49:41;;;;;;;13.13;12.30;;;16.10;99.90;;;;;;4904641;29;20573;-79
2023/10/19 12:52:08;;;;;;;13.87;12.87;;;16.20;99.90;;;;;;4912261;29;20329;-80
2023/10/19 12:54:35;;;;;;;14.17;13.17;;;16.20;99.90;;;;;;4911628;29;20201;-79
2023/10/19 12:57:06;;;;;;;13.23;12.33;;;16.20;99.90;;;;;;4905150;29;20266;-79
2023/10/19 12:59:33;;;;;;;14.40;13.40;;;16.20;99.90;;;;;;4902191;29;20200;-79